GW2597 Weather Reports


Display with metric or nautical units.
time (UTC)temp
F
wind
direction
speed
MPH
gust
MPH
rain 1hr
in
rain 24hr
in
rain mn
in
humidity
%
barometer
mb
20240522050530 65 252 0.0 0.0 0.00 0.00 0.00 90 1017.0
20240522050028 65 312 0.0 0.0 0.00 0.00 0.00 89 1016.6
20240522045527 64 317 0.0 0.0 0.00 0.00 0.00 90 1016.6
20240522045027 64 324 3.0 3.0 0.00 0.00 0.00 91 1016.0
20240522044526 65 210 0.0 0.0 0.00 0.00 0.00 90 1016.3
20240522044026 65 210 0.0 0.0 0.00 0.00 0.00 90 1016.0
20240522043524 65 210 0.0 0.0 0.00 0.00 0.00 90 1016.0
20240522043023 65 210 0.0 0.0 0.00 0.00 0.00 90 1016.0
20240522042521 65 210 0.0 0.0 0.00 0.00 0.00 91 1016.0
20240522042019 64 210 0.0 0.0 0.00 0.00 0.00 93 1016.0
20240522041519 64 210 0.0 0.0 0.00 0.00 0.00 93 1016.0
20240522041018 64 210 0.0 0.0 0.00 0.00 0.00 93 1016.0
20240522040517 64 108 0.0 0.0 0.00 0.00 0.00 93 1016.0
20240522040016 63 108 0.0 0.0 0.00 0.06 0.06 93 1016.0
20240522035514 63 108 0.0 0.0 0.00 0.06 0.06 93 1016.0
20240522035013 63 108 0.0 0.0 0.00 0.06 0.06 93 1016.0
20240522034512 63 108 0.0 0.0 0.00 0.06 0.06 93 1016.0
20240522034010 63 108 0.0 0.0 0.00 0.06 0.06 93 1016.0
20240522033509 63 108 0.0 0.0 0.00 0.06 0.06 93 1016.0
20240522033010 63 108 0.0 0.0 0.00 0.06 0.06 93 1016.3
20240522032509 63 108 0.0 0.0 0.00 0.06 0.06 93 1016.3
20240522032009 63 108 0.0 0.0 0.00 0.06 0.06 93 1016.0
20240522031508 62 108 0.0 0.0 0.00 0.06 0.06 93 1016.3
20240522031007 62 108 0.0 0.0 0.00 0.06 0.06 93 1016.3
20240522030507 62 108 0.0 0.0 0.00 0.06 0.06 93 1016.3
20240522030006 63 108 0.0 0.0 0.00 0.06 0.06 93 1016.3
20240522025504 63 108 0.0 0.0 0.00 0.06 0.06 93 1016.3
20240522025003 63 108 0.0 0.0 0.00 0.06 0.06 93 1016.6
20240522024502 63 108 0.0 0.0 0.00 0.06 0.06 93 1016.6
20240522024001 63 108 0.0 0.0 0.00 0.06 0.06 93 1016.6
20240522023501 63 108 0.0 0.0 0.00 0.06 0.06 93 1016.6
20240522022959 63 108 0.0 0.0 0.00 0.06 0.06 93 1016.6
20240522022459 63 108 0.0 0.0 0.00 0.06 0.06 93 1016.6
20240522021957 63 108 0.0 0.0 0.00 0.06 0.06 93 1016.6
20240522021456 64 108 0.0 0.0 0.00 0.06 0.06 93 1016.3
20240522020954 64 108 0.0 0.0 0.00 0.06 0.06 93 1016.6
20240522020453 64 108 0.0 0.0 0.00 0.06 0.06 93 1016.6
20240522015952 64 108 0.0 0.0 0.00 0.06 0.06 93 1016.6
20240522015451 64 108 0.0 0.0 0.00 0.06 0.06 93 1016.6
20240522014950 64 108 0.0 0.0 0.00 0.06 0.06 93 1016.3
20240522014449 64 108 0.0 0.0 0.00 0.06 0.06 93 1016.3
20240522013947 64 108 0.0 0.0 0.00 0.06 0.06 93 1016.3
20240522013445 64 108 0.0 0.0 0.00 0.06 0.06 93 1016.6
20240522012943 64 108 0.0 0.0 0.00 0.06 0.06 93 1017.0
20240522012441 64 108 0.0 0.0 0.00 0.06 0.06 93 1016.6
20240522011940 64 108 0.0 0.0 0.00 0.06 0.06 93 1016.6
20240522011439 64 108 0.0 0.0 0.00 0.06 0.06 93 1016.6
20240522010939 64 108 0.0 0.0 0.00 0.06 0.06 93 1016.3
20240522010436 64 108 0.0 0.0 0.00 0.06 0.06 93 1016.3
20240522005936 64 108 0.0 0.0 0.00 0.06 0.06 93 1016.3
20240522005435 65 108 0.0 0.0 0.00 0.06 0.06 93 1016.0
20240522004934 65 108 0.0 0.0 0.00 0.06 0.06 93 1016.3
20240522004432 65 108 0.0 0.0 0.00 0.06 0.06 93 1016.0
20240522003931 64 108 0.0 0.0 0.00 0.06 0.06 93 1016.0
20240522003430 64 108 0.0 0.0 0.00 0.06 0.06 92 1016.3
20240522002929 65 108 0.0 0.0 0.00 0.06 0.06 92 1016.0
20240522002427 65 108 0.0 0.0 0.00 0.06 0.06 92 1016.3
20240522001926 65 108 0.0 0.0 0.00 0.06 0.06 92 1016.6
20240522001424 65 108 0.0 0.0 0.00 0.06 0.06 92 1016.3
20240522000922 65 108 0.0 0.0 0.00 0.06 0.06 92 1016.3
20240522000421 65 108 0.0 0.0 0.00 0.06 0.06 92 1016.3
20240521235920 65 108 0.0 0.0 0.00 0.06 0.06 92 1016.6
20240521235419 65 108 0.0 0.0 0.00 0.06 0.06 92 1016.3
20240521234919 65 108 0.0 0.0 0.00 0.06 0.06 92 1016.6
20240521234418 65 108 0.0 0.0 0.00 0.06 0.06 92 1016.3
20240521233915 65 108 0.0 0.0 0.00 0.06 0.06 91 1016.6
20240521233414 65 108 0.0 0.0 0.00 0.06 0.06 91 1016.3
20240521232912 65 108 0.0 0.0 0.00 0.06 0.06 91 1016.3
20240521232410 65 108 0.0 0.0 0.00 0.06 0.06 91 1016.0
20240521231910 65 108 0.0 0.0 0.00 0.06 0.06 91 1015.6
20240521231409 65 48 0.0 0.0 0.00 0.06 0.06 90 1015.6
20240521230908 65 42 0.0 0.0 0.00 0.06 0.06 90 1016.0
20240521230359 65 329 0.0 0.0 0.00 0.06 0.06 89 1015.6
20240521225858 65 330 0.0 0.0 0.06 0.06 0.06 89 1015.6
20240521225357 65 306 2.0 2.0 0.04 0.04 0.04 89 1016.3
20240521224857 65 323 2.0 2.0 0.03 0.03 0.03 87 1017.0
20240521224356 67 312 7.0 7.0 0.00 0.00 0.00 84 1017.0
20240521223856 73 296 8.0 9.0 0.00 0.00 0.00 71 1016.0
20240521223356 77 341 3.0 4.0 0.00 0.00 0.00 63 1015.3
20240521222854 78 346 3.0 4.0 0.00 0.00 0.00 63 1015.0
20240521222354 79 293 2.0 2.0 0.00 0.00 0.00 62 1014.3
20240521221853 80 286 0.0 0.0 0.00 0.00 0.00 57 1014.3
20240521221352 81 265 0.0 0.0 0.00 0.00 0.00 56 1014.3
20240521220851 81 265 0.0 0.0 0.00 0.00 0.00 56 1014.3
20240521220349 81 265 0.0 0.0 0.00 0.00 0.00 56 1014.3
20240521215847 82 265 0.0 0.0 0.00 0.00 0.00 57 1014.3
20240521215345 82 265 0.0 0.0 0.00 0.00 0.00 55 1014.3
20240521214843 82 265 0.0 0.0 0.00 0.00 0.00 53 1014.3
20240521214341 82 265 0.0 0.0 0.00 0.00 0.00 53 1014.3
20240521213840 82 264 0.0 0.0 0.00 0.00 0.00 52 1013.8
20240521213339 83 264 0.0 0.0 0.00 0.00 0.00 51 1013.8
20240521212840 83 264 0.0 0.0 0.00 0.00 0.00 50 1014.3
20240521212338 83 264 0.0 0.0 0.00 0.00 0.00 48 1014.3
20240521211837 83 264 0.0 0.0 0.00 0.00 0.00 48 1014.3
20240521211335 83 264 0.0 0.0 0.00 0.00 0.00 47 1014.3
20240521210834 83 264 0.0 0.0 0.00 0.00 0.00 47 1013.8
20240521210333 83 264 0.0 0.0 0.00 0.00 0.00 48 1013.8
20240521205833 84 264 0.0 0.0 0.00 0.00 0.00 44 1013.8
20240521205333 84 264 1.0 1.0 0.00 0.00 0.00 45 1013.8
20240521204831 84 102 0.0 0.0 0.00 0.00 0.00 46 1014.3
20240521204330 84 102 0.0 0.0 0.00 0.00 0.00 44 1013.8
20240521203828 85 289 0.0 0.0 0.00 0.00 0.00 47 1013.8
20240521203328 85 285 2.0 2.0 0.00 0.00 0.00 47 1014.3
20240521202826 84 270 0.0 0.0 0.00 0.00 0.00 45 1013.8
20240521202326 84 270 0.0 0.0 0.00 0.00 0.00 45 1014.3
20240521201824 84 270 2.0 2.0 0.00 0.00 0.00 46 1014.3
20240521201322 84 288 2.0 2.0 0.00 0.00 0.00 46 1014.3
20240521200820 84 292 2.0 2.0 0.00 0.00 0.00 48 1014.3
20240521200318 83 293 0.0 0.0 0.00 0.00 0.00 56 1013.8
20240521195818 84 294 1.0 1.0 0.00 0.00 0.00 48 1014.3
20240521195316 83 293 2.0 2.0 0.00 0.00 0.00 49 1014.3
20240521194816 83 300 0.0 0.0 0.00 0.00 0.00 53 1014.3
20240521194315 83 300 0.0 0.0 0.00 0.00 0.00 55 1014.3
20240521193813 83 300 0.0 0.0 0.00 0.00 0.00 53 1014.3
20240521193313 82 314 0.0 0.0 0.00 0.00 0.00 57 1014.3
20240521192811 82 343 0.0 0.0 0.00 0.00 0.00 56 1014.3
20240521192311 83 343 0.0 0.0 0.00 0.00 0.00 58 1014.3
20240521191811 83 42 0.0 0.0 0.00 0.00 0.00 52 1014.3
20240521191309 82 18 0.0 0.0 0.00 0.00 0.00 58 1014.3
20240521190809 82 31 0.0 0.0 0.00 0.00 0.00 58 1014.3
20240521190309 82 19 0.0 0.0 0.00 0.00 0.00 59 1014.3
20240521185807 82 42 0.0 0.0 0.00 0.00 0.00 61 1014.3
20240521185307 83 45 0.0 0.0 0.00 0.00 0.00 55 1014.3
20240521184805 83 228 0.0 0.0 0.00 0.00 0.00 54 1014.3
20240521184305 82 229 0.0 0.0 0.00 0.00 0.00 56 1014.6
20240521183803 82 229 0.0 0.0 0.00 0.00 0.00 61 1014.3
20240521183302 83 192 2.0 2.0 0.00 0.00 0.00 58 1014.3
20240521182801 83 6 2.0 2.0 0.00 0.00 0.00 55 1015.0
20240521182259 83 258 0.0 0.0 0.00 0.00 0.00 55 1014.6
20240521181759 83 234 1.0 1.0 0.00 0.00 0.00 55 1015.0
20240521181258 83 249 0.0 0.0 0.00 0.00 0.00 60 1015.3
20240521180755 83 71 0.0 0.0 0.00 0.00 0.00 53 1015.0
20240521180255 82 36 0.0 0.0 0.00 0.00 0.00 56 1015.0
20240521175753 82 264 2.0 2.0 0.00 0.00 0.00 59 1015.0
20240521175251 83 108 0.0 0.0 0.00 0.00 0.00 56 1015.0
20240521174750 83 78 2.0 2.0 0.00 0.00 0.00 54 1015.0
20240521174248 83 240 0.0 0.0 0.00 0.00 0.00 55 1015.0
20240521173746 83 83 0.0 0.0 0.00 0.00 0.00 56 1015.3
20240521173246 82 72 2.0 2.0 0.00 0.00 0.00 58 1015.3
20240521172744 82 306 0.0 0.0 0.00 0.00 0.00 60 1015.3
20240521172242 82 348 0.0 0.0 0.00 0.00 0.00 56 1015.3
20240521171741 82 314 2.0 2.0 0.00 0.00 0.00 59 1015.3
20240521171240 82 351 0.0 0.0 0.00 0.00 0.00 57 1015.3
20240521170740 82 48 0.0 0.0 0.00 0.00 0.00 57 1015.6
20240521170239 81 147 2.0 2.0 0.00 0.00 0.00 57 1015.6
20240521165736 80 263 0.0 0.0 0.00 0.00 0.00 58 1015.6
20240521165235 79 270 0.0 0.0 0.00 0.00 0.00 61 1015.6
20240521164734 79 268 2.0 2.0 0.00 0.00 0.00 61 1015.6
20240521164233 79 288 0.0 0.0 0.00 0.00 0.00 63 1016.0
20240521163731 78 304 0.0 0.0 0.00 0.00 0.00 62 1016.0
20240521163230 78 304 0.0 0.0 0.00 0.00 0.00 63 1016.0
20240521162727 78 303 0.0 0.0 0.00 0.00 0.00 62 1016.3
20240521162226 79 309 0.0 0.0 0.00 0.00 0.00 63 1016.3
20240521161726 78 276 2.0 2.0 0.00 0.00 0.00 63 1016.3
20240521161225 79 291 0.0 0.0 0.00 0.00 0.00 63 1016.3
20240521160723 78 292 0.0 0.0 0.00 0.00 0.00 64 1016.6
20240521160222 78 28 0.0 0.0 0.00 0.00 0.00 66 1016.6
20240521155721 77 282 0.0 0.0 0.00 0.00 0.00 66 1016.6
20240521155219 77 282 0.0 0.0 0.00 0.00 0.00 67 1016.6
20240521154718 76 282 1.0 1.0 0.00 0.00 0.00 67 1016.6
20240521154217 76 354 2.0 2.0 0.00 0.00 0.00 66 1016.6
20240521153716 78 86 0.0 0.0 0.00 0.00 0.00 63 1016.6
20240521153214 77 82 0.0 0.0 0.00 0.00 0.00 62 1017.0
20240521152713 76 339 0.0 0.0 0.00 0.00 0.00 68 1017.0
20240521152212 76 339 0.0 0.0 0.00 0.00 0.00 66 1017.0
20240521151710 76 82 0.0 0.0 0.00 0.00 0.00 69 1017.0
20240521151209 75 90 0.0 0.0 0.00 0.00 0.00 66 1017.0
20240521150707 74 148 0.0 0.0 0.00 0.00 0.00 71 1017.0
20240521150205 75 148 0.0 0.0 0.00 0.00 0.00 70 1017.0
20240521145703 74 138 2.0 2.0 0.00 0.00 0.00 69 1017.0
20240521145201 73 154 0.0 0.0 0.00 0.00 0.00 71 1017.0
20240521144701 72 216 0.0 0.0 0.00 0.00 0.00 72 1017.3
20240521144200 72 216 0.0 0.0 0.00 0.00 0.00 71 1017.3
20240521143658 71 216 0.0 0.0 0.00 0.00 0.00 72 1017.3
20240521143156 72 186 0.0 0.0 0.00 0.00 0.00 71 1017.3
20240521142655 71 144 0.0 0.0 0.00 0.00 0.00 71 1017.7
20240521142155 71 192 0.0 0.0 0.00 0.00 0.00 72 1017.3
20240521141653 71 90 0.0 0.0 0.00 0.00 0.00 71 1017.3
20240521141152 70 330 0.0 0.0 0.00 0.00 0.00 74 1017.3
20240521140650 69 330 0.0 0.0 0.00 0.00 0.00 74 1017.3
20240521140130 70 331 0.0 0.0 0.00 0.00 0.00 74 1017.7
20240521135629 71 331 0.0 0.0 0.00 0.00 0.00 71 1017.3
20240521135128 70 330 0.0 0.0 0.00 0.00 0.00 74 1017.3
20240521134626 69 331 0.0 0.0 0.00 0.00 0.00 71 1017.7
20240521134124 68 329 0.0 0.0 0.00 0.00 0.00 78 1017.7
20240521133623 69 328 0.0 0.0 0.00 0.00 0.00 74 1017.7
20240521133122 68 50 0.0 0.0 0.00 0.00 0.00 76 1017.7
20240521132620 67 49 0.0 0.0 0.00 0.00 0.00 76 1017.7
20240521132119 66 26 0.0 0.0 0.00 0.00 0.00 80 1018.0
20240521131618 66 30 0.0 0.0 0.00 0.00 0.00 79 1018.0
20240521131116 65 30 0.0 0.0 0.00 0.00 0.00 80 1017.7
20240521130615 64 30 0.0 0.0 0.00 0.00 0.00 79 1018.0
20240521130114 64 30 0.0 0.0 0.00 0.00 0.00 80 1017.7
20240521125612 63 30 0.0 0.0 0.00 0.00 0.00 81 1018.0
20240521125111 63 30 0.0 0.0 0.00 0.00 0.00 81 1017.7
20240521124610 63 30 0.0 0.0 0.00 0.00 0.00 82 1017.7
20240521124110 63 30 0.0 0.0 0.00 0.00 0.00 83 1017.7
20240521123606 63 30 0.0 0.0 0.00 0.00 0.00 82 1017.7
20240521123103 62 24 0.0 0.0 0.00 0.00 0.00 83 1017.7
20240521122600 62 24 0.0 0.0 0.00 0.00 0.00 84 1017.7
20240521122058 61 24 0.0 0.0 0.00 0.00 0.00 84 1017.7
20240521121557 61 24 0.0 0.0 0.00 0.00 0.00 86 1018.0
20240521121056 60 24 0.0 0.0 0.00 0.00 0.00 87 1017.7
20240521120551 60 24 0.0 0.0 0.00 0.00 0.00 88 1017.7
20240521120050 59 24 0.0 0.0 0.00 0.00 0.00 89 1017.7
20240521115549 59 24 0.0 0.0 0.00 0.00 0.00 89 1017.3
20240521115048 58 24 0.0 0.0 0.00 0.00 0.00 89 1017.7
20240521114545 58 24 0.0 0.0 0.00 0.00 0.00 90 1017.7
20240521114044 58 24 0.0 0.0 0.00 0.00 0.00 92 1017.7
20240521113541 57 24 0.0 0.0 0.00 0.00 0.00 92 1017.7
20240521113041 56 24 0.0 0.0 0.00 0.00 0.00 92 1017.3
20240521112540 56 24 0.0 0.0 0.00 0.00 0.00 93 1017.3
20240521112039 55 24 0.0 0.0 0.00 0.00 0.00 93 1017.3
20240521111538 55 24 0.0 0.0 0.00 0.00 0.00 93 1017.3
20240521111036 55 24 0.0 0.0 0.00 0.00 0.00 93 1017.0
20240521110536 54 24 0.0 0.0 0.00 0.00 0.00 93 1017.3
20240521110034 54 24 0.0 0.0 0.00 0.00 0.00 93 1017.3
20240521105532 54 24 0.0 0.0 0.00 0.00 0.00 93 1017.3
20240521105031 53 24 0.0 0.0 0.00 0.00 0.00 93 1017.3
20240521104531 53 24 0.0 0.0 0.00 0.00 0.00 93 1017.3
20240521104030 53 24 0.0 0.0 0.00 0.00 0.00 93 1017.3
20240521103527 53 24 0.0 0.0 0.00 0.00 0.00 93 1017.0
20240521103026 53 24 0.0 0.0 0.00 0.00 0.00 93 1017.0
20240521102525 53 24 0.0 0.0 0.00 0.00 0.00 93 1017.0
20240521102024 52 24 0.0 0.0 0.00 0.00 0.00 93 1017.3
20240521101523 52 24 0.0 0.0 0.00 0.00 0.00 93 1017.0
20240521101021 52 24 0.0 0.0 0.00 0.00 0.00 93 1017.0
20240521100520 52 24 0.0 0.0 0.00 0.00 0.00 93 1017.0
20240521100018 52 24 0.0 0.0 0.00 0.00 0.00 93 1017.0
20240521095517 52 24 0.0 0.0 0.00 0.00 0.00 93 1017.0
20240521095016 52 24 0.0 0.0 0.00 0.00 0.00 93 1017.0
20240521094514 52 24 0.0 0.0 0.00 0.00 0.00 93 1017.0
20240521094012 52 24 0.0 0.0 0.00 0.00 0.00 93 1017.0
20240521093512 52 24 0.0 0.0 0.00 0.00 0.00 93 1017.0
20240521093011 52 24 0.0 0.0 0.00 0.00 0.00 93 1017.0
20240521092511 52 24 0.0 0.0 0.00 0.00 0.00 93 1017.0
20240521092009 52 24 0.0 0.0 0.00 0.00 0.00 93 1017.0
20240521091508 53 24 0.0 0.0 0.00 0.00 0.00 93 1017.0
20240521091007 53 24 0.0 0.0 0.00 0.00 0.00 93 1016.6
20240521090506 53 24 0.0 0.0 0.00 0.00 0.00 93 1017.0
20240521090004 53 24 0.0 0.0 0.00 0.00 0.00 93 1017.0
20240521085502 53 24 0.0 0.0 0.00 0.00 0.00 93 1017.0
20240521085000 53 24 0.0 0.0 0.00 0.00 0.00 93 1017.0
20240521084459 53 24 0.0 0.0 0.00 0.00 0.00 93 1017.0
20240521083957 53 24 0.0 0.0 0.00 0.00 0.00 93 1017.0
20240521083457 53 24 0.0 0.0 0.00 0.00 0.00 93 1017.0
20240521082956 53 24 0.0 0.0 0.00 0.00 0.00 93 1017.0
20240521082455 53 24 0.0 0.0 0.00 0.00 0.00 93 1016.6
20240521081955 53 24 0.0 0.0 0.00 0.00 0.00 93 1016.6
20240521081453 53 24 0.0 0.0 0.00 0.00 0.00 93 1016.6
20240521080953 53 24 0.0 0.0 0.00 0.00 0.00 93 1017.0
20240521080451 53 24 0.0 0.0 0.00 0.00 0.00 93 1017.0
20240521075951 53 24 0.0 0.0 0.00 0.00 0.00 93 1017.0
20240521075449 53 24 0.0 0.0 0.00 0.00 0.00 93 1017.0
20240521074947 53 24 0.0 0.0 0.00 0.00 0.00 93 1017.0
20240521074446 53 24 0.0 0.0 0.00 0.00 0.00 93 1017.0
20240521073945 53 24 0.0 0.0 0.00 0.00 0.00 93 1017.0
20240521073445 53 24 0.0 0.0 0.00 0.00 0.00 93 1016.6
20240521072944 53 24 0.0 0.0 0.00 0.00 0.00 93 1017.0
20240521072442 53 24 0.0 0.0 0.00 0.00 0.00 93 1017.0
20240521071942 53 24 0.0 0.0 0.00 0.00 0.00 93 1017.0
20240521071441 53 24 0.0 0.0 0.00 0.00 0.00 93 1017.0
20240521070941 53 24 0.0 0.0 0.00 0.00 0.00 93 1016.6
20240521070439 53 24 0.0 0.0 0.00 0.00 0.00 93 1017.0
20240521065939 53 24 0.0 0.0 0.00 0.00 0.00 93 1017.0
20240521065438 53 24 0.0 0.0 0.00 0.00 0.00 93 1017.0
20240521064936 52 24 0.0 0.0 0.00 0.00 0.00 93 1017.0
20240521064434 52 24 0.0 0.0 0.00 0.00 0.00 92 1017.0
20240521063933 52 24 0.0 0.0 0.00 0.00 0.00 92 1017.0
20240521063433 52 24 0.0 0.0 0.00 0.00 0.00 92 1017.0
20240521062932 52 24 0.0 0.0 0.00 0.00 0.00 92 1017.3
20240521062432 52 24 0.0 0.0 0.00 0.00 0.00 92 1017.0
20240521061932 52 24 0.0 0.0 0.00 0.00 0.00 92 1017.3
20240521061430 52 24 0.0 0.0 0.00 0.00 0.00 92 1017.3
20240521060928 52 24 0.0 0.0 0.00 0.00 0.00 92 1017.3
20240521060426 53 24 0.0 0.0 0.00 0.00 0.00 92 1017.3
20240521055924 53 24 0.0 0.0 0.00 0.00 0.00 92 1017.3
20240521055423 53 24 0.0 0.0 0.00 0.00 0.00 92 1017.3
20240521054922 53 24 0.0 0.0 0.00 0.00 0.00 92 1017.3
20240521054421 53 24 0.0 0.0 0.00 0.00 0.00 92 1017.3
20240521053920 53 24 0.0 0.0 0.00 0.00 0.00 92 1017.3
20240521053420 53 24 0.0 0.0 0.00 0.00 0.00 92 1017.7
20240521052918 53 24 0.0 0.0 0.00 0.00 0.00 92 1017.7
20240521052416 53 24 0.0 0.0 0.00 0.00 0.00 92 1017.7
20240521051914 53 24 0.0 0.0 0.00 0.00 0.00 92 1017.3
20240521051413 53 24 0.0 0.0 0.00 0.00 0.00 92 1017.7
20240521050913 53 24 0.0 0.0 0.00 0.00 0.00 92 1018.0